Hlavní strana
METAR-TAF:

METAR-TAF

Letiště :

Nuakšott, Mauritánie

zeměpisná šířka: 18-18-36N, zeměpisná délka: 015-58-11W, výška: 3 m

Aktuální stav počasí

Zpráva byla vytvořena před 19 minutami, v 15:30 UTC
Východojihovýchodní vítr 20 kt
Teplota 30°C
Vlhkost vzduchu 10%
Tlak 1014 hPa
Viditelnost: 2300 m
zvířený prach

METAR: GQNO 181530Z 11020KT 2300 BLDU NSC 30/M05 Q1014 NOSIG

Čas: 15:49 (15:49 UTC)

Předpověď počasí

Zpráva byla vytvořena před 4 hodinami a 49 minutami, v 11:00 UTC
Předpověď platná od 18 v 12 UTC do 19 v 18 UTC
Východní vítr 20 kt
Viditelnost: 2000 m
zvířený prach
Změna
od 18 v 14 UTC do 18 v 17 UTC
Viditelnost: 3500 m
Změna
od 18 v 17 UTC do 18 v 20 UTC
Severoseverovýchodní vítr 12 kt
Viditelnost: 6000 m
v blízkosti, , rozsáhlý prach

TAF: GQNO 181100Z 1812/1918 09020KT 2000 BLDU NSC BECMG 1814/1817 3500 BECMG 1817/1820 03012KT 6000 VCBLDU

Stav a předpovědi počasí z více než 4 000 letišť (zprávy METAR a TAF).

Červené a žluté tečky na mapě představují dostupné meteorologické stanice.

Když kurzor umístíte na tečku, zobrazí se název stanice.

Pak kliknutím zobrazíte stav a předpověď počasí.

Chcete-li změnit mapu, kliknutím na zelené tlačítko se znaménkem +mapu přiblížíte, kliknutím na zelené tlačítko se znaménkem – mapu oddálíte a kliknutím na zelené šipky přejdete na sousední mapy.


METAR-TAF: